createdAt,value
2022-09-06T00:00:24.845Z,4.47
2022-09-06T00:02:57.751Z,6.23
2022-09-06T00:05:24.856Z,3.43
2022-09-06T00:07:51.630Z,3.70
2022-09-06T00:10:18.692Z,2.57
2022-09-06T00:12:45.819Z,6.23
2022-09-06T00:15:12.723Z,3.88
2022-09-06T00:17:39.708Z,4.97
2022-09-06T00:20:09.187Z,4.67
2022-09-06T00:22:37.197Z,3.97
2022-09-06T00:25:05.801Z,4.30
2022-09-06T00:27:33.433Z,4.27
2022-09-06T00:30:00.451Z,3.93
2022-09-06T00:32:27.271Z,5.17
2022-09-06T00:34:54.261Z,3.40
2022-09-06T00:37:21.319Z,5.57
2022-09-06T00:39:48.162Z,3.30
2022-09-06T00:42:15.188Z,4.60
2022-09-06T00:44:41.950Z,4.37
2022-09-06T00:47:09.011Z,4.57
2022-09-06T00:49:44.143Z,4.37
2022-09-06T00:52:15.459Z,5.33
2022-09-06T00:54:43.782Z,4.47
2022-09-06T00:57:11.187Z,4.73
2022-09-06T00:59:41.653Z,3.17
2022-09-06T01:02:09.575Z,5.40
2022-09-06T01:04:39.336Z,3.27
2022-09-06T01:07:10.616Z,3.23
2022-09-06T01:09:55.965Z,4.77
2022-09-06T01:12:47.606Z,5.03
2022-09-06T01:15:33.016Z,2.90
2022-09-06T01:18:16.664Z,3.87
2022-09-06T01:21:08.010Z,6.60
2022-09-06T01:23:51.138Z,3.43
2022-09-06T01:26:26.778Z,4.00
2022-09-06T01:28:54.744Z,4.57
2022-09-06T01:31:35.652Z,4.97
2022-09-06T01:34:05.708Z,3.63
2022-09-06T01:36:59.983Z,4.73
2022-09-06T01:39:32.630Z,4.10
2022-09-06T01:42:08.202Z,2.90
2022-09-06T01:44:37.529Z,4.57
2022-09-06T01:47:41.956Z,4.43
2022-09-06T01:50:26.780Z,3.50
2022-09-06T01:53:01.759Z,3.50
2022-09-06T01:55:37.282Z,7.07
2022-09-06T01:58:47.151Z,7.50
2022-09-06T02:01:30.303Z,4.80
2022-09-06T02:04:04.784Z,4.47
2022-09-06T02:06:40.495Z,5.93
2022-09-06T02:09:16.105Z,4.33
2022-09-06T02:11:49.733Z,4.23
2022-09-06T02:14:22.719Z,3.07
2022-09-06T02:16:53.057Z,3.30
2022-09-06T02:19:39.551Z,6.23
2022-09-06T02:22:09.415Z,3.37
2022-09-06T02:24:40.682Z,5.10
2022-09-06T02:27:07.847Z,4.23
2022-09-06T02:29:35.543Z,5.40
2022-09-06T02:32:20.325Z,3.87
2022-09-06T02:34:48.707Z,4.47
2022-09-06T02:37:16.656Z,3.53
2022-09-06T02:39:43.566Z,2.80
2022-09-06T02:42:12.877Z,2.97
2022-09-06T02:44:40.411Z,3.90
2022-09-06T02:47:07.297Z,6.97
2022-09-06T02:49:34.760Z,2.57
2022-09-06T02:52:02.021Z,5.77
2022-09-06T02:54:28.799Z,6.13
2022-09-06T02:56:55.611Z,6.43
2022-09-06T02:59:22.567Z,4.80
2022-09-06T03:01:49.950Z,3.40
2022-09-06T03:04:16.697Z,5.03
2022-09-06T03:06:43.613Z,5.00
2022-09-06T03:09:10.516Z,3.47
2022-09-06T03:11:38.087Z,4.93
2022-09-06T03:14:05.163Z,5.17
2022-09-06T03:16:32.350Z,4.90
2022-09-06T03:18:59.216Z,3.27
2022-09-06T03:21:26.232Z,5.40
2022-09-06T03:23:53.132Z,5.67
2022-09-06T03:26:19.872Z,6.67
2022-09-06T03:28:46.872Z,5.53
2022-09-06T03:31:13.723Z,4.80
2022-09-06T03:33:40.870Z,4.03
2022-09-06T03:36:07.905Z,5.37
2022-09-06T03:38:35.198Z,5.47
2022-09-06T03:41:02.080Z,3.77
2022-09-06T03:43:29.557Z,5.13
2022-09-06T03:45:57.490Z,4.73
2022-09-06T03:48:27.528Z,4.40
2022-09-06T03:50:56.813Z,3.40
2022-09-06T03:53:25.637Z,3.37
2022-09-06T03:55:54.445Z,29.60
2022-09-06T03:58:24.091Z,9.17
2022-09-06T04:01:00.226Z,7.73
2022-09-06T04:03:27.294Z,6.20
2022-09-06T04:05:54.117Z,12.53
2022-09-06T04:08:20.952Z,3.67
2022-09-06T04:10:51.338Z,7.90
2022-09-06T04:13:18.132Z,6.27
2022-09-06T04:15:48.281Z,4.37
2022-09-06T04:18:16.778Z,10.23
2022-09-06T04:20:47.660Z,9.23
2022-09-06T04:23:14.762Z,6.10
2022-09-06T04:25:45.984Z,10.17
2022-09-06T04:28:12.864Z,4.67
2022-09-06T04:30:39.622Z,4.80
2022-09-06T04:33:06.812Z,4.63
2022-09-06T04:35:33.625Z,4.03
2022-09-06T04:38:02.427Z,4.10
2022-09-06T04:40:29.672Z,5.17
2022-09-06T04:42:56.429Z,7.03
2022-09-06T04:45:23.203Z,20.33
2022-09-06T04:47:51.503Z,29.03
2022-09-06T04:50:18.347Z,61.50
2022-09-06T04:52:48.287Z,72.60
2022-09-06T04:55:15.355Z,54.63
2022-09-06T04:57:45.783Z,44.53
2022-09-06T05:00:14.554Z,7.47
2022-09-06T05:02:41.554Z,11.13
2022-09-06T05:05:08.857Z,29.83
2022-09-06T05:07:35.668Z,11.50
2022-09-06T05:10:03.501Z,10.23
2022-09-06T05:12:30.248Z,22.47
2022-09-06T05:14:57.144Z,22.93
2022-09-06T05:17:24.049Z,29.97
2022-09-06T05:19:50.914Z,22.53
2022-09-06T05:22:17.751Z,22.27
2022-09-06T05:24:45.002Z,14.20
2022-09-06T05:27:12.716Z,51.43
2022-09-06T05:29:39.555Z,35.67
2022-09-06T05:32:06.778Z,13.83
2022-09-06T05:34:33.805Z,13.83
2022-09-06T05:37:00.557Z,8.17
2022-09-06T05:39:27.711Z,12.30
2022-09-06T05:41:54.570Z,9.77
2022-09-06T05:44:21.402Z,9.07
2022-09-06T05:46:48.299Z,10.73
2022-09-06T05:49:15.114Z,7.50
2022-09-06T05:51:42.032Z,7.90
2022-09-06T05:54:11.194Z,5.73
2022-09-06T05:56:37.923Z,6.67
2022-09-06T05:59:05.988Z,5.43
2022-09-06T06:01:33.326Z,6.17
2022-09-06T06:04:05.087Z,10.30
2022-09-06T06:06:34.619Z,9.00
2022-09-06T06:09:01.858Z,7.50
2022-09-06T06:11:29.583Z,8.40
2022-09-06T06:13:56.593Z,8.60
2022-09-06T06:16:23.837Z,4.77
2022-09-06T06:18:52.602Z,4.27
2022-09-06T06:21:24.880Z,7.07
2022-09-06T06:23:58.121Z,7.57
2022-09-06T06:26:26.744Z,7.43
2022-09-06T06:28:54.038Z,10.38
2022-09-06T06:31:22.572Z,7.13
2022-09-06T06:33:50.424Z,9.98
2022-09-06T06:36:17.424Z,10.05
2022-09-06T06:38:46.041Z,8.32
2022-09-06T06:41:15.026Z,7.60
2022-09-06T06:43:42.162Z,5.43
2022-09-06T06:46:15.085Z,5.85
2022-09-06T06:48:43.757Z,7.90
2022-09-06T06:51:12.971Z,9.48
2022-09-06T06:53:40.026Z,7.38
2022-09-06T06:56:30.420Z,5.88
2022-09-06T06:59:00.685Z,9.45
2022-09-06T07:01:29.807Z,9.50
2022-09-06T07:03:57.023Z,6.90
2022-09-06T07:09:16.038Z,4.30
2022-09-06T07:11:42.984Z,4.97
2022-09-06T07:14:09.909Z,5.55
2022-09-06T07:16:36.827Z,10.52
2022-09-06T07:19:04.030Z,6.10
2022-09-06T07:21:38.358Z,6.13
2022-09-06T07:24:08.610Z,5.82
2022-09-06T07:26:38.226Z,5.80
2022-09-06T07:29:06.365Z,4.10
2022-09-06T07:34:22.053Z,3.75
2022-09-06T07:36:52.808Z,5.30
2022-09-06T07:39:19.634Z,7.93
2022-09-06T07:41:48.761Z,5.88
2022-09-06T07:44:15.820Z,6.40
2022-09-06T07:46:42.945Z,5.20
2022-09-06T07:49:09.786Z,6.43
2022-09-06T07:51:36.847Z,3.85
2022-09-06T07:54:29.311Z,6.05
2022-09-06T07:56:51.519Z,3.75
2022-09-06T07:59:18.397Z,12.38
2022-09-06T08:01:45.358Z,6.65
2022-09-06T08:04:14.166Z,5.28
2022-09-06T08:09:35.682Z,6.53
2022-09-06T08:12:06.879Z,6.07
2022-09-06T08:14:34.628Z,5.88
2022-09-06T08:17:04.885Z,3.38
2022-09-06T08:19:32.470Z,7.25
2022-09-06T08:21:59.521Z,4.45
2022-09-06T08:24:26.654Z,4.72
2022-09-06T08:26:53.388Z,7.82
2022-09-06T08:29:20.335Z,3.50
2022-09-06T08:31:47.673Z,5.60
2022-09-06T08:34:15.233Z,5.25
2022-09-06T08:36:43.317Z,4.38
2022-09-06T08:39:10.958Z,6.00
2022-09-06T08:42:00.270Z,3.63
2022-09-06T08:47:21.221Z,6.72
2022-09-06T08:49:54.643Z,5.10
2022-09-06T08:53:13.656Z,7.38
2022-09-06T08:56:09.910Z,5.20
2022-09-06T08:59:06.685Z,7.88
2022-09-06T09:01:54.774Z,6.72
2022-09-06T09:04:25.255Z,3.95
2022-09-06T09:06:59.781Z,5.00
2022-09-06T09:09:32.870Z,5.47
2022-09-06T09:12:01.986Z,4.63
2022-09-06T09:14:35.312Z,2.67
2022-09-06T09:17:20.329Z,6.55
2022-09-06T09:19:47.302Z,8.07
2022-09-06T09:22:19.380Z,3.28
2022-09-06T09:24:48.330Z,4.85
2022-09-06T09:27:19.841Z,5.95
2022-09-06T09:32:45.658Z,5.20
2022-09-06T09:35:18.637Z,9.80
2022-09-06T09:37:47.529Z,4.10
2022-09-06T09:40:24.504Z,7.90
2022-09-06T09:42:54.906Z,3.58
2022-09-06T09:45:31.655Z,4.13
2022-09-06T09:48:16.801Z,7.03
2022-09-06T09:50:43.601Z,4.18
2022-09-06T09:53:17.019Z,3.38
2022-09-06T09:55:44.603Z,3.15
2022-09-06T09:58:30.612Z,5.97
2022-09-06T10:01:11.756Z,3.75
2022-09-06T10:09:33.487Z,4.80
2022-09-06T10:12:00.333Z,3.38
2022-09-06T10:14:29.685Z,6.07
2022-09-06T10:16:57.691Z,1.90
2022-09-06T10:19:34.390Z,3.40
2022-09-06T10:22:11.467Z,2.65
2022-09-06T10:25:08.066Z,4.43
2022-09-06T10:27:36.074Z,2.97
2022-09-06T10:30:08.883Z,3.00
2022-09-06T10:32:48.782Z,2.88
2022-09-06T10:35:23.918Z,14.05
2022-09-06T10:38:32.388Z,5.20
2022-09-06T10:41:17.795Z,4.03
2022-09-06T10:43:57.604Z,2.53
2022-09-06T10:46:27.068Z,1.92
2022-09-06T10:48:54.240Z,3.45
2022-09-06T10:51:42.468Z,5.40
2022-09-06T10:54:11.724Z,2.67
2022-09-06T10:56:43.705Z,3.38
2022-09-06T10:59:39.034Z,8.48
2022-09-06T11:02:48.960Z,2.92
2022-09-06T11:05:48.472Z,4.43
2022-09-06T11:11:40.322Z,7.30
2022-09-06T11:14:11.868Z,2.25
2022-09-06T11:16:48.031Z,6.30
2022-09-06T11:19:44.246Z,4.95
2022-09-06T11:22:30.056Z,3.85
2022-09-06T11:24:56.767Z,1.50
2022-09-06T11:27:33.419Z,4.03
2022-09-06T11:30:02.687Z,7.78
2022-09-06T11:32:35.619Z,7.97
2022-09-06T11:35:20.758Z,1.83
2022-09-06T11:37:57.211Z,2.33
2022-09-06T11:40:28.629Z,5.47
2022-09-06T11:42:56.115Z,3.70
2022-09-06T11:45:51.456Z,3.00
2022-09-06T11:48:24.587Z,1.08
2022-09-06T11:50:54.552Z,2.60
2022-09-06T11:53:23.945Z,4.90
2022-09-06T11:56:11.048Z,2.13
2022-09-06T11:58:56.297Z,2.75
2022-09-06T12:01:23.130Z,2.78
2022-09-06T12:04:09.698Z,1.70
2022-09-06T12:06:40.748Z,4.35
2022-09-06T12:09:29.246Z,2.92
2022-09-06T12:11:57.080Z,4.50
2022-09-06T12:14:40.274Z,2.05
2022-09-06T12:17:07.802Z,20.08
2022-09-06T12:19:55.239Z,8.38
2022-09-06T12:22:36.835Z,4.50
2022-09-06T12:25:15.902Z,9.30
2022-09-06T12:27:59.042Z,5.00
2022-09-06T12:30:44.213Z,2.70
2022-09-06T12:33:16.822Z,23.48
2022-09-06T12:35:59.824Z,9.10
2022-09-06T12:38:28.586Z,3.28
2022-09-06T12:40:59.091Z,4.50
2022-09-06T12:43:27.041Z,9.25
2022-09-06T12:45:53.996Z,5.63
2022-09-06T12:48:33.392Z,1.75
2022-09-06T12:51:16.159Z,7.18
2022-09-06T12:54:01.390Z,2.72
2022-09-06T12:56:30.602Z,3.58
2022-09-06T12:59:29.730Z,4.22
2022-09-06T13:02:05.777Z,5.47
2022-09-06T13:04:39.872Z,3.58
2022-09-06T13:07:11.667Z,2.42
2022-09-06T13:09:42.940Z,5.43
2022-09-06T13:12:26.850Z,2.95
2022-09-06T13:15:00.256Z,3.63
2022-09-06T13:17:29.543Z,2.38
2022-09-06T13:19:58.227Z,2.45
2022-09-06T13:23:09.368Z,2.03
2022-09-06T13:25:47.778Z,4.00
2022-09-06T13:28:34.710Z,2.30
2022-09-06T13:31:11.154Z,1.40
2022-09-06T13:33:38.414Z,2.70
2022-09-06T13:36:11.257Z,6.53
2022-09-06T13:38:38.098Z,1.90
2022-09-06T13:41:15.877Z,3.15
2022-09-06T13:43:46.101Z,1.92
2022-09-06T13:46:13.609Z,4.50
2022-09-06T13:48:41.560Z,1.55
2022-09-06T13:51:09.690Z,2.08
2022-09-06T13:53:36.685Z,1.90
2022-09-06T13:56:05.115Z,2.65
2022-09-06T13:58:32.287Z,4.40
2022-09-06T14:00:59.191Z,3.60
2022-09-06T14:03:32.400Z,6.68
2022-09-06T14:06:00.567Z,4.72
2022-09-06T14:08:43.374Z,3.13
2022-09-06T14:11:15.956Z,1.33
2022-09-06T14:13:42.857Z,4.47
2022-09-06T14:16:10.099Z,6.85
2022-09-06T14:18:37.373Z,5.90
2022-09-06T14:21:05.420Z,3.13
2022-09-06T14:23:32.286Z,6.07
2022-09-06T14:26:01.251Z,3.53
2022-09-06T14:28:28.525Z,4.35
2022-09-06T14:30:55.450Z,1.50
2022-09-06T14:33:22.750Z,4.78
2022-09-06T14:35:49.788Z,2.53
2022-09-06T14:38:16.670Z,6.35
2022-09-06T14:40:46.402Z,9.73
2022-09-06T14:43:13.361Z,3.67
2022-09-06T14:45:40.195Z,2.67
2022-09-06T14:48:07.425Z,4.43
2022-09-06T14:50:34.391Z,2.70
2022-09-06T14:53:01.960Z,6.60
2022-09-06T14:55:30.474Z,3.42
2022-09-06T14:57:59.360Z,5.95
2022-09-06T15:00:26.425Z,3.75
2022-09-06T15:02:54.482Z,6.45
2022-09-06T15:05:21.500Z,1.98
2022-09-06T15:07:48.291Z,5.47
2022-09-06T15:10:15.300Z,6.38
2022-09-06T15:12:42.107Z,3.22
2022-09-06T15:15:09.588Z,2.88
2022-09-06T15:17:36.699Z,1.35
2022-09-06T15:20:04.086Z,3.60
2022-09-06T15:22:31.120Z,4.35
2022-09-06T15:24:58.181Z,5.22
2022-09-06T15:27:25.167Z,9.15
2022-09-06T15:29:52.056Z,3.72
2022-09-06T15:32:19.051Z,2.53
2022-09-06T15:34:45.992Z,3.80
2022-09-06T15:37:13.642Z,1.42
2022-09-06T15:39:48.575Z,3.67
2022-09-06T15:42:15.534Z,3.97
2022-09-06T15:44:42.457Z,2.67
2022-09-06T15:47:11.146Z,4.22
2022-09-06T15:49:38.068Z,5.75
2022-09-06T15:52:09.971Z,2.22
2022-09-06T15:55:10.235Z,1.65
2022-09-06T15:57:37.339Z,3.63
2022-09-06T16:00:05.356Z,3.05
2022-09-06T16:02:32.358Z,10.23
2022-09-06T16:04:59.418Z,4.25
2022-09-06T16:07:26.510Z,6.78
2022-09-06T16:09:53.418Z,5.63
2022-09-06T16:12:21.236Z,4.15
2022-09-06T16:14:48.263Z,4.05
2022-09-06T16:17:15.200Z,7.13
2022-09-06T16:19:42.141Z,3.65
2022-09-06T16:22:09.364Z,11.40
2022-09-06T16:24:36.206Z,3.75
2022-09-06T16:27:03.173Z,3.72
2022-09-06T16:29:31.172Z,7.45
2022-09-06T16:32:00.004Z,6.28
2022-09-06T16:34:27.419Z,5.47
2022-09-06T16:36:56.218Z,9.07
2022-09-06T16:39:23.148Z,3.88
2022-09-06T16:41:50.232Z,7.32
2022-09-06T16:44:18.993Z,8.73
2022-09-06T16:46:47.932Z,63.13
2022-09-06T16:49:19.653Z,45.08
2022-09-06T16:51:48.621Z,26.63
2022-09-06T16:54:16.593Z,29.23
2022-09-06T16:56:43.972Z,23.08
2022-09-06T16:59:12.925Z,9.88
2022-09-06T17:01:44.268Z,15.65
2022-09-06T17:04:13.016Z,10.48
2022-09-06T17:06:44.510Z,13.30
2022-09-06T17:09:13.634Z,13.98
2022-09-06T17:11:40.584Z,12.50
2022-09-06T17:14:08.122Z,17.73
2022-09-06T17:16:53.463Z,16.63
2022-09-06T17:19:20.848Z,19.50
2022-09-06T17:21:47.783Z,14.52
2022-09-06T17:24:15.578Z,41.28
2022-09-06T17:26:42.886Z,27.40
2022-09-06T17:29:10.519Z,17.92
2022-09-06T17:31:38.160Z,20.05
2022-09-06T17:34:06.776Z,27.15
2022-09-06T17:36:34.980Z,19.83
2022-09-06T17:39:07.033Z,14.82
2022-09-06T17:41:37.784Z,10.55
2022-09-06T17:44:06.839Z,20.30
2022-09-06T17:46:33.780Z,13.18
2022-09-06T17:49:00.995Z,14.02
2022-09-06T17:51:28.340Z,12.63
2022-09-06T17:53:55.217Z,10.27
2022-09-06T17:56:23.117Z,14.27
2022-09-06T17:58:55.280Z,20.10
2022-09-06T18:01:23.871Z,16.42
2022-09-06T18:03:51.355Z,19.00
2022-09-06T18:06:22.708Z,14.32
2022-09-06T18:08:52.199Z,15.20
2022-09-06T18:11:28.460Z,23.38
2022-09-06T18:14:10.153Z,21.38
2022-09-06T18:16:40.005Z,29.02
2022-09-06T18:19:08.501Z,27.75
2022-09-06T18:21:38.955Z,32.70
2022-09-06T18:24:07.239Z,38.53
2022-09-06T18:26:34.166Z,123.88
2022-09-06T18:29:01.671Z,228.68
2022-09-06T18:31:28.901Z,335.98
2022-09-06T18:33:58.985Z,329.90
2022-09-06T18:36:31.191Z,256.45
2022-09-06T18:39:04.179Z,235.82
2022-09-06T18:41:51.460Z,210.07
2022-09-06T18:44:19.071Z,118.55
2022-09-06T18:46:46.267Z,96.68
2022-09-06T18:49:15.096Z,48.08
2022-09-06T18:51:42.892Z,29.70
2022-09-06T18:54:10.937Z,50.80
2022-09-06T18:56:38.480Z,37.10
2022-09-06T18:59:05.942Z,42.47
2022-09-06T19:01:34.866Z,27.83
2022-09-06T19:04:03.365Z,30.80
2022-09-06T19:06:32.493Z,42.55
2022-09-06T19:09:06.814Z,50.67
2022-09-06T19:11:34.910Z,40.97
2022-09-06T19:14:02.716Z,45.75
2022-09-06T19:16:30.027Z,58.00
2022-09-06T19:19:03.167Z,65.07
2022-09-06T19:21:30.268Z,64.18
2022-09-06T19:24:02.234Z,73.97
2022-09-06T19:26:31.991Z,68.50
2022-09-06T19:29:04.598Z,70.43
2022-09-06T19:31:34.971Z,62.40
2022-09-06T19:34:02.427Z,55.65
2022-09-06T19:36:30.069Z,45.88
2022-09-06T19:39:04.502Z,35.30
2022-09-06T19:41:37.893Z,27.80
2022-09-06T19:44:07.708Z,24.65
2022-09-06T19:46:35.632Z,26.20
2022-09-06T19:49:03.388Z,16.15
2022-09-06T19:51:31.328Z,17.85
2022-09-06T19:53:58.188Z,16.38
2022-09-06T19:56:29.991Z,13.07
2022-09-06T19:58:59.304Z,17.53
2022-09-06T20:01:29.260Z,12.60
2022-09-06T20:03:57.889Z,13.40
2022-09-06T20:06:25.687Z,15.02
2022-09-06T20:08:54.816Z,15.43
2022-09-06T20:11:26.023Z,13.48
2022-09-06T20:13:53.684Z,12.65
2022-09-06T20:16:21.225Z,18.43
2022-09-06T20:18:49.072Z,15.07
2022-09-06T20:21:20.965Z,16.05
2022-09-06T20:23:52.502Z,20.58
2022-09-06T20:26:23.556Z,24.25
2022-09-06T20:29:09.001Z,23.03
2022-09-06T20:31:37.569Z,34.53
2022-09-06T20:34:06.262Z,24.77
2022-09-06T20:36:33.504Z,23.00
2022-09-06T20:39:00.684Z,19.30
2022-09-06T20:41:28.270Z,20.93
2022-09-06T20:43:59.833Z,31.95
2022-09-06T20:46:30.018Z,24.57
2022-09-06T20:48:59.816Z,24.47
2022-09-06T20:51:26.930Z,21.90
2022-09-06T20:53:57.012Z,15.43
2022-09-06T20:56:29.833Z,17.65
2022-09-06T20:59:02.584Z,14.30
2022-09-06T21:01:34.759Z,15.68
2022-09-06T21:04:04.044Z,17.10
2022-09-06T21:06:35.732Z,11.60
2022-09-06T21:09:11.898Z,11.75
2022-09-06T21:11:39.200Z,11.20
2022-09-06T21:14:07.503Z,8.87
2022-09-06T21:16:34.694Z,8.30
2022-09-06T21:19:09.013Z,10.23
2022-09-06T21:21:38.603Z,8.10
2022-09-06T21:24:07.513Z,10.67
2022-09-06T21:26:34.530Z,4.60
2022-09-06T21:29:01.907Z,7.97
2022-09-06T21:31:31.398Z,8.40
2022-09-06T21:34:02.209Z,13.87
2022-09-06T21:36:32.189Z,8.43
2022-09-06T21:39:01.775Z,9.60
2022-09-06T21:41:31.336Z,10.93
2022-09-06T21:44:00.234Z,12.60
2022-09-06T21:46:33.206Z,14.83
2022-09-06T21:49:04.286Z,10.73
2022-09-06T21:51:32.466Z,13.10
2022-09-06T21:54:03.374Z,9.47
2022-09-06T21:56:35.852Z,13.20
2022-09-06T21:59:04.024Z,12.23
2022-09-06T22:01:33.271Z,12.60
2022-09-06T22:04:00.622Z,9.07
2022-09-06T22:06:29.556Z,10.57
2022-09-06T22:08:58.756Z,10.37
2022-09-06T22:11:28.257Z,11.73
2022-09-06T22:13:59.192Z,10.87
2022-09-06T22:16:27.921Z,14.23
2022-09-06T22:18:54.926Z,17.03
2022-09-06T22:21:22.188Z,11.00
2022-09-06T22:24:03.327Z,11.77
2022-09-06T22:26:32.679Z,8.90
2022-09-06T22:29:02.093Z,15.63
2022-09-06T22:31:30.524Z,11.50
2022-09-06T22:33:58.114Z,8.73
2022-09-06T22:36:26.023Z,8.47
2022-09-06T22:38:57.145Z,14.43
2022-09-06T22:41:28.547Z,12.50
2022-09-06T22:43:56.445Z,9.60
2022-09-06T22:46:23.732Z,14.83
2022-09-06T22:48:50.629Z,11.93
2022-09-06T22:51:18.013Z,17.10
2022-09-06T22:53:44.889Z,16.83
2022-09-06T22:56:11.878Z,8.83
2022-09-06T22:58:38.961Z,8.47
2022-09-06T23:01:14.511Z,8.97
2022-09-06T23:03:42.227Z,10.70
2022-09-06T23:06:10.037Z,9.37
2022-09-06T23:08:39.259Z,10.40
2022-09-06T23:11:08.956Z,9.57
2022-09-06T23:13:36.005Z,7.93
2022-09-06T23:16:08.140Z,11.03
2022-09-06T23:18:35.434Z,7.67
2022-09-06T23:21:17.079Z,7.73
2022-09-06T23:23:44.945Z,7.83
2022-09-06T23:26:22.962Z,7.07
2022-09-06T23:28:57.396Z,8.30
2022-09-06T23:31:26.911Z,8.73
2022-09-06T23:33:59.066Z,8.17
2022-09-06T23:36:27.231Z,8.90
2022-09-06T23:38:54.726Z,7.67
2022-09-06T23:41:21.964Z,8.90
2022-09-06T23:43:48.700Z,11.23
2022-09-06T23:46:16.270Z,9.80
2022-09-06T23:48:43.537Z,7.83
2022-09-06T23:51:11.122Z,11.80
2022-09-06T23:53:39.356Z,8.13
2022-09-06T23:56:06.962Z,13.30
2022-09-06T23:58:34.482Z,7.77
